createdAt,value
2024-01-24T00:04:59.338Z,98455.19
2024-01-24T00:10:01.566Z,98442.94
2024-01-24T00:15:03.939Z,98432.94
2024-01-24T00:20:06.655Z,98414.81
2024-01-24T00:25:08.831Z,98399.56
2024-01-24T00:30:11.077Z,98386.41
2024-01-24T00:35:12.932Z,98379.41
2024-01-24T00:40:14.881Z,98400.13
2024-01-24T00:45:16.870Z,98358.47
2024-01-24T00:50:18.915Z,98361.59
2024-01-24T00:55:20.742Z,98329.84
2024-01-24T01:00:22.620Z,98314.56
2024-01-24T01:05:26.184Z,98282.38
2024-01-24T01:10:28.041Z,98273.28
2024-01-24T01:15:29.895Z,98263.38
2024-01-24T01:20:33.108Z,98251.09
2024-01-24T01:25:34.971Z,98245.34
2024-01-24T01:30:36.870Z,98229.69
2024-01-24T01:35:38.746Z,98229.03
2024-01-24T01:40:40.548Z,98191.22
2024-01-24T01:45:43.412Z,98191.63
2024-01-24T01:50:45.461Z,98170.47
2024-01-24T01:55:47.348Z,98177.00
2024-01-24T02:00:51.324Z,98174.41
2024-01-24T02:05:53.334Z,98149.28
2024-01-24T02:10:57.069Z,98141.09
2024-01-24T02:16:04.822Z,98126.34
2024-01-24T02:21:06.682Z,98118.69
2024-01-24T02:26:09.048Z,98110.34
2024-01-24T02:31:10.892Z,98093.53
2024-01-24T02:36:16.068Z,98075.63
2024-01-24T02:41:20.382Z,98081.41
2024-01-24T02:46:22.276Z,98057.00
2024-01-24T02:51:25.516Z,98029.56
2024-01-24T02:56:27.539Z,98035.69
2024-01-24T03:01:29.476Z,98010.09
2024-01-24T03:06:31.385Z,98007.28
2024-01-24T03:11:33.223Z,97997.94
2024-01-24T03:16:37.075Z,97973.91
2024-01-24T03:21:40.244Z,97959.81
2024-01-24T03:26:42.349Z,97925.28
2024-01-24T03:31:44.904Z,97918.13
2024-01-24T03:36:46.730Z,97909.78
2024-01-24T03:41:48.606Z,97904.94
2024-01-24T03:46:50.560Z,97916.69
2024-01-24T03:51:52.541Z,97909.19
2024-01-24T03:56:54.358Z,97896.19
2024-01-24T04:01:56.200Z,97898.28
2024-01-24T04:06:58.177Z,97924.78
2024-01-24T04:12:00.044Z,97930.75
2024-01-24T04:17:01.843Z,97898.34
2024-01-24T04:22:04.267Z,97896.25
2024-01-24T04:27:07.742Z,97870.81
2024-01-24T04:32:10.774Z,97861.63
2024-01-24T04:37:12.657Z,97855.47
2024-01-24T04:42:16.950Z,97853.25
2024-01-24T04:47:19.168Z,97922.38
2024-01-24T04:52:20.989Z,97877.06
2024-01-24T04:57:22.862Z,97871.25
2024-01-24T05:02:24.797Z,97888.66
2024-01-24T05:07:26.667Z,97884.81
2024-01-24T05:12:28.479Z,97861.19
2024-01-24T05:17:30.333Z,97860.53
2024-01-24T05:22:32.152Z,97891.66
2024-01-24T05:27:34.030Z,97859.13
2024-01-24T05:32:35.952Z,97854.06
2024-01-24T05:37:37.863Z,97854.56
2024-01-24T05:42:39.856Z,97846.16
2024-01-24T05:47:44.715Z,97853.25
2024-01-24T05:52:53.217Z,97833.97
2024-01-24T05:57:55.158Z,97810.34
2024-01-24T06:02:57.123Z,97802.63
2024-01-24T06:07:59.044Z,97806.16
2024-01-24T06:13:00.931Z,97791.44
2024-01-24T06:18:03.726Z,97792.25
2024-01-24T06:23:05.625Z,97799.28
2024-01-24T06:28:07.549Z,97849.09
2024-01-24T06:33:10.532Z,97818.88
2024-01-24T06:38:12.461Z,97806.50
2024-01-24T06:43:19.554Z,97818.22
2024-01-24T06:48:21.722Z,97796.50
2024-01-24T06:53:23.639Z,97788.72
2024-01-24T06:58:25.488Z,97807.41
2024-01-24T07:03:27.550Z,97799.63
2024-01-24T07:08:29.464Z,97795.75
2024-01-24T07:13:31.360Z,97808.22
2024-01-24T07:18:33.318Z,97823.78
2024-01-24T07:23:35.244Z,97832.41
2024-01-24T07:28:37.118Z,97810.72
2024-01-24T07:33:39.599Z,97783.13
2024-01-24T07:38:41.963Z,97797.16
2024-01-24T07:43:44.000Z,97789.03
2024-01-24T07:48:46.194Z,97810.84
2024-01-24T07:53:48.619Z,97775.13
2024-01-24T07:58:51.015Z,97804.69
2024-01-24T08:03:53.450Z,97803.16
2024-01-24T08:08:56.133Z,97787.53
2024-01-24T08:13:58.767Z,97795.59
2024-01-24T08:19:02.585Z,97833.28
2024-01-24T08:24:05.173Z,97806.91
2024-01-24T08:29:07.135Z,97826.41
2024-01-24T08:34:09.011Z,97839.66
2024-01-24T08:39:13.040Z,97813.56
2024-01-24T08:44:15.595Z,97814.38
2024-01-24T08:49:18.030Z,97827.28
2024-01-24T08:54:20.000Z,97863.16
2024-01-24T08:59:22.201Z,97880.31
2024-01-24T09:04:24.932Z,97867.03
2024-01-24T09:09:27.128Z,97883.38
2024-01-24T09:14:29.096Z,97849.63
2024-01-24T09:19:31.143Z,97861.69
2024-01-24T09:24:33.145Z,97845.31
2024-01-24T09:29:35.043Z,97847.63
2024-01-24T09:34:37.179Z,97847.66
2024-01-24T09:39:39.309Z,97860.91
2024-01-24T09:44:42.233Z,97845.34
2024-01-24T09:49:45.557Z,97848.44
2024-01-24T09:54:47.695Z,97847.63
2024-01-24T09:59:49.826Z,97868.28
2024-01-24T10:04:53.362Z,97918.47
2024-01-24T10:10:10.923Z,97888.78
2024-01-24T10:15:13.458Z,97895.63
2024-01-24T10:20:15.319Z,97892.53
2024-01-24T10:25:18.168Z,97884.81
2024-01-24T10:30:20.822Z,97894.19
2024-01-24T10:35:24.320Z,97882.53
2024-01-24T10:40:26.559Z,97904.69
2024-01-24T10:45:31.861Z,97900.44
2024-01-24T10:50:35.832Z,97932.34
2024-01-24T10:55:39.492Z,97969.34
2024-01-24T11:00:42.878Z,97936.00
2024-01-24T11:05:49.536Z,97980.69
2024-01-24T11:10:52.341Z,97971.03
2024-01-24T11:15:57.267Z,97962.31
2024-01-24T11:21:00.809Z,97957.38
2024-01-24T11:26:03.364Z,97980.66
2024-01-24T11:31:05.960Z,97993.19
2024-01-24T11:36:13.950Z,97977.03
2024-01-24T11:41:22.036Z,97977.88
2024-01-24T11:46:24.500Z,97984.13
2024-01-24T11:51:27.757Z,97975.66
2024-01-24T11:56:29.674Z,97962.72
2024-01-24T12:01:31.951Z,97986.59
2024-01-24T12:06:37.027Z,97982.69
2024-01-24T12:11:39.074Z,97990.84
2024-01-24T12:16:41.273Z,97985.34
2024-01-24T12:21:43.967Z,97999.72
2024-01-24T12:26:45.940Z,98017.19
2024-01-24T12:31:49.476Z,98032.53
2024-01-24T12:36:52.914Z,98055.66
2024-01-24T12:41:55.794Z,98066.38
2024-01-24T12:46:59.314Z,98048.09
2024-01-24T12:52:01.697Z,98082.38
2024-01-24T12:57:05.104Z,98109.47
2024-01-24T13:02:07.251Z,98059.09
2024-01-24T13:07:09.435Z,98054.72
2024-01-24T13:12:11.942Z,98046.94
2024-01-24T13:17:14.164Z,98045.50
2024-01-24T13:22:16.164Z,98054.41
2024-01-24T13:27:18.123Z,98069.34
2024-01-24T13:32:20.897Z,98087.59
2024-01-24T13:37:22.851Z,98085.84
2024-01-24T13:42:24.870Z,98086.59
2024-01-24T13:47:26.852Z,98096.06
2024-01-24T13:52:28.896Z,98102.88
2024-01-24T13:57:31.189Z,98110.50
2024-01-24T14:02:33.563Z,98132.41
2024-01-24T14:07:35.698Z,98133.81
2024-01-24T14:12:38.222Z,98136.25
2024-01-24T14:17:40.220Z,98136.09
2024-01-24T14:22:42.103Z,98152.19
2024-01-24T14:27:44.526Z,98182.25
2024-01-24T14:32:46.460Z,98182.22
2024-01-24T14:37:48.510Z,98178.44
2024-01-24T14:42:51.627Z,98183.03
2024-01-24T14:47:53.504Z,98173.75
2024-01-24T14:52:56.021Z,98192.22
2024-01-24T14:57:58.598Z,98188.28
2024-01-24T15:03:01.155Z,98198.69
2024-01-24T15:08:03.751Z,98188.88
2024-01-24T15:13:05.978Z,98196.50
2024-01-24T15:18:08.078Z,98222.72
2024-01-24T15:23:11.930Z,98199.97
2024-01-24T15:28:14.195Z,98211.47
2024-01-24T15:33:16.119Z,98257.66
2024-01-24T15:38:18.936Z,98234.16
2024-01-24T15:43:21.513Z,98246.41
2024-01-24T15:48:23.551Z,98263.41
2024-01-24T15:53:25.516Z,98242.41
2024-01-24T15:58:27.342Z,98251.75
2024-01-24T16:03:33.899Z,98235.84
2024-01-24T16:08:36.484Z,98251.97
2024-01-24T16:13:38.867Z,98265.00
2024-01-24T16:18:41.249Z,98274.91
2024-01-24T16:23:43.095Z,98265.75
2024-01-24T16:28:44.963Z,98285.16
2024-01-24T16:33:46.869Z,98282.91
2024-01-24T16:38:48.789Z,98283.75
2024-01-24T16:43:51.761Z,98307.13
2024-01-24T16:48:56.542Z,98310.97
2024-01-24T16:53:58.555Z,98304.75
2024-01-24T16:59:00.378Z,98299.31
2024-01-24T17:04:02.962Z,98328.78
2024-01-24T17:09:04.853Z,98334.91
2024-01-24T17:14:06.708Z,98325.19
2024-01-24T17:19:09.527Z,98323.97
2024-01-24T17:24:13.820Z,98331.59
2024-01-24T17:29:15.903Z,98348.19
2024-01-24T17:34:17.857Z,98335.19
2024-01-24T17:39:19.835Z,98363.41
2024-01-24T17:44:21.735Z,98373.13
2024-01-24T17:49:24.244Z,98387.38
2024-01-24T17:54:28.017Z,98370.69
2024-01-24T17:59:30.673Z,98383.44
2024-01-24T18:04:33.412Z,98414.09
2024-01-24T18:09:35.562Z,98405.50
2024-01-24T18:14:37.492Z,98401.66
2024-01-24T18:19:39.953Z,98422.50
2024-01-24T18:24:43.574Z,98426.59
2024-01-24T18:29:47.042Z,98431.94
2024-01-24T18:34:49.392Z,98443.75
2024-01-24T18:39:51.345Z,98445.94
2024-01-24T18:44:53.789Z,98427.66
2024-01-24T18:49:59.864Z,98472.19
2024-01-24T18:55:04.201Z,98454.41
2024-01-24T19:00:07.399Z,98462.53
2024-01-24T19:05:14.010Z,98465.63
2024-01-24T19:10:21.597Z,98470.88
2024-01-24T19:15:28.282Z,98477.06
2024-01-24T19:20:31.171Z,98482.47
2024-01-24T19:25:33.311Z,98481.25
2024-01-24T19:30:35.388Z,98501.16
2024-01-24T19:35:40.057Z,98496.31
2024-01-24T19:40:42.723Z,98506.81
2024-01-24T19:45:45.105Z,98492.38
2024-01-24T19:50:47.475Z,98493.28
2024-01-24T19:55:50.044Z,98500.84
2024-01-24T20:00:52.266Z,98488.25
2024-01-24T20:05:54.308Z,98508.69
2024-01-24T20:10:57.155Z,98504.63
2024-01-24T20:15:59.701Z,98508.91
2024-01-24T20:21:02.482Z,98491.88
2024-01-24T20:26:06.799Z,98511.63
2024-01-24T20:31:09.241Z,98523.34
2024-01-24T20:36:12.055Z,98529.44
2024-01-24T20:41:14.608Z,98531.44
2024-01-24T20:46:17.053Z,98519.75
2024-01-24T20:51:19.006Z,98510.69
2024-01-24T20:56:21.027Z,98532.59
2024-01-24T21:01:23.419Z,98540.47
2024-01-24T21:06:29.003Z,98542.59
2024-01-24T21:11:31.256Z,98553.09
2024-01-24T21:16:33.177Z,98561.69
2024-01-24T21:21:35.312Z,98558.97
2024-01-24T21:26:37.337Z,98553.88
2024-01-24T21:31:39.422Z,98556.91
2024-01-24T21:36:47.631Z,98565.66
2024-01-24T21:41:51.009Z,98562.94
2024-01-24T21:46:53.232Z,98561.22
2024-01-24T21:51:55.111Z,98550.53
2024-01-24T21:56:56.979Z,98530.00
2024-01-24T22:01:58.861Z,98527.75
2024-01-24T22:07:00.755Z,98536.78
2024-01-24T22:12:02.604Z,98529.81
2024-01-24T22:17:04.653Z,98521.06
2024-01-24T22:22:06.642Z,98552.28
2024-01-24T22:27:08.950Z,98546.78
2024-01-24T22:32:10.801Z,98544.28
2024-01-24T22:37:12.773Z,98534.38
2024-01-24T22:42:14.667Z,98529.88
2024-01-24T22:47:17.991Z,98550.84
2024-01-24T22:52:20.006Z,98568.00
2024-01-24T22:57:22.001Z,98567.66
2024-01-24T23:02:25.720Z,98550.06
2024-01-24T23:07:27.681Z,98571.03
2024-01-24T23:12:29.618Z,98563.25
2024-01-24T23:17:31.592Z,98584.22
2024-01-24T23:22:33.563Z,98583.44
2024-01-24T23:27:35.462Z,98613.69
2024-01-24T23:32:37.328Z,98576.00
2024-01-24T23:37:39.329Z,98586.13
2024-01-24T23:42:41.360Z,98594.16
2024-01-24T23:47:44.461Z,98561.91
2024-01-24T23:52:46.773Z,98576.53
2024-01-24T23:57:48.664Z,98579.69
